sensor_id;sensor_type;location;lat;lon;timestamp;P1;durP1;ratioP1;P2;durP2;ratioP2
35877;SDS011;21982;49.804;24.072;2022-08-19T00:00:15;11.25;;;7.88;;
35877;SDS011;21982;49.804;24.072;2022-08-19T00:02:41;11.35;;;7.05;;
35877;SDS011;21982;49.804;24.072;2022-08-19T00:05:07;12.65;;;6.95;;
35877;SDS011;21982;49.804;24.072;2022-08-19T00:07:34;23.55;;;7.70;;
35877;SDS011;21982;49.804;24.072;2022-08-19T00:10:00;11.85;;;6.65;;
35877;SDS011;21982;49.804;24.072;2022-08-19T00:12:26;14.02;;;7.38;;
35877;SDS011;21982;49.804;24.072;2022-08-19T00:14:52;10.45;;;6.50;;
35877;SDS011;21982;49.804;24.072;2022-08-19T00:17:19;11.90;;;7.20;;
35877;SDS011;21982;49.804;24.072;2022-08-19T00:19:45;14.85;;;7.57;;
35877;SDS011;21982;49.804;24.072;2022-08-19T00:22:11;12.73;;;7.10;;
35877;SDS011;21982;49.804;24.072;2022-08-19T00:24:36;10.73;;;6.95;;
35877;SDS011;21982;49.804;24.072;2022-08-19T00:27:03;11.13;;;6.70;;
35877;SDS011;21982;49.804;24.072;2022-08-19T00:29:30;11.55;;;6.28;;
35877;SDS011;21982;49.804;24.072;2022-08-19T00:31:56;10.20;;;6.25;;
35877;SDS011;21982;49.804;24.072;2022-08-19T00:34:24;14.85;;;7.50;;
35877;SDS011;21982;49.804;24.072;2022-08-19T00:36:53;12.23;;;6.72;;
35877;SDS011;21982;49.804;24.072;2022-08-19T00:39:19;11.45;;;6.82;;
35877;SDS011;21982;49.804;24.072;2022-08-19T00:41:45;12.38;;;7.40;;
35877;SDS011;21982;49.804;24.072;2022-08-19T00:44:15;16.08;;;7.55;;
35877;SDS011;21982;49.804;24.072;2022-08-19T00:46:48;16.67;;;7.15;;
35877;SDS011;21982;49.804;24.072;2022-08-19T00:51:51;20.17;;;8.00;;
35877;SDS011;21982;49.804;24.072;2022-08-19T00:54:20;11.07;;;7.35;;
35877;SDS011;21982;49.804;24.072;2022-08-19T00:56:46;13.07;;;6.72;;
35877;SDS011;21982;49.804;24.072;2022-08-19T00:59:14;15.73;;;7.95;;
35877;SDS011;21982;49.804;24.072;2022-08-19T01:01:42;10.20;;;6.25;;
35877;SDS011;21982;49.804;24.072;2022-08-19T01:04:09;10.82;;;7.18;;
35877;SDS011;21982;49.804;24.072;2022-08-19T01:06:35;13.93;;;7.80;;
35877;SDS011;21982;49.804;24.072;2022-08-19T01:09:02;17.65;;;9.43;;
35877;SDS011;21982;49.804;24.072;2022-08-19T01:11:28;12.88;;;7.38;;
35877;SDS011;21982;49.804;24.072;2022-08-19T01:13:57;12.52;;;7.00;;
35877;SDS011;21982;49.804;24.072;2022-08-19T01:16:25;15.25;;;8.25;;
35877;SDS011;21982;49.804;24.072;2022-08-19T01:18:53;16.73;;;7.53;;
35877;SDS011;21982;49.804;24.072;2022-08-19T01:23:56;14.88;;;9.63;;
35877;SDS011;21982;49.804;24.072;2022-08-19T01:26:22;12.77;;;8.18;;
35877;SDS011;21982;49.804;24.072;2022-08-19T01:28:54;14.05;;;7.05;;
35877;SDS011;21982;49.804;24.072;2022-08-19T01:31:24;12.90;;;7.30;;
35877;SDS011;21982;49.804;24.072;2022-08-19T01:33:52;11.65;;;7.57;;
35877;SDS011;21982;49.804;24.072;2022-08-19T01:36:29;14.27;;;7.22;;
35877;SDS011;21982;49.804;24.072;2022-08-19T01:39:05;12.77;;;8.45;;
35877;SDS011;21982;49.804;24.072;2022-08-19T01:41:34;14.75;;;8.60;;
35877;SDS011;21982;49.804;24.072;2022-08-19T01:44:03;15.05;;;8.10;;
35877;SDS011;21982;49.804;24.072;2022-08-19T01:46:33;15.52;;;7.47;;
35877;SDS011;21982;49.804;24.072;2022-08-19T01:49:00;14.45;;;8.45;;
35877;SDS011;21982;49.804;24.072;2022-08-19T01:51:26;12.52;;;8.20;;
35877;SDS011;21982;49.804;24.072;2022-08-19T01:53:52;14.43;;;8.98;;
35877;SDS011;21982;49.804;24.072;2022-08-19T01:56:18;13.50;;;8.55;;
35877;SDS011;21982;49.804;24.072;2022-08-19T01:58:45;11.75;;;7.15;;
35877;SDS011;21982;49.804;24.072;2022-08-19T02:01:16;16.30;;;8.68;;
35877;SDS011;21982;49.804;24.072;2022-08-19T02:03:42;12.60;;;8.13;;
35877;SDS011;21982;49.804;24.072;2022-08-19T02:06:11;11.98;;;7.35;;
35877;SDS011;21982;49.804;24.072;2022-08-19T02:08:37;12.55;;;6.85;;
35877;SDS011;21982;49.804;24.072;2022-08-19T02:11:07;11.98;;;7.53;;
35877;SDS011;21982;49.804;24.072;2022-08-19T02:13:33;13.18;;;8.60;;
35877;SDS011;21982;49.804;24.072;2022-08-19T02:15:59;14.95;;;8.85;;
35877;SDS011;21982;49.804;24.072;2022-08-19T02:18:25;12.48;;;7.40;;
35877;SDS011;21982;49.804;24.072;2022-08-19T02:20:51;13.93;;;8.07;;
35877;SDS011;21982;49.804;24.072;2022-08-19T02:23:17;13.98;;;8.35;;
35877;SDS011;21982;49.804;24.072;2022-08-19T02:25:44;12.38;;;8.90;;
35877;SDS011;21982;49.804;24.072;2022-08-19T02:28:11;13.35;;;8.65;;
35877;SDS011;21982;49.804;24.072;2022-08-19T02:30:36;15.90;;;8.38;;
35877;SDS011;21982;49.804;24.072;2022-08-19T02:33:03;13.10;;;8.20;;
35877;SDS011;21982;49.804;24.072;2022-08-19T02:35:29;13.65;;;9.43;;
35877;SDS011;21982;49.804;24.072;2022-08-19T02:37:55;13.98;;;9.80;;
35877;SDS011;21982;49.804;24.072;2022-08-19T02:40:39;13.57;;;9.50;;
35877;SDS011;21982;49.804;24.072;2022-08-19T02:43:05;16.95;;;9.88;;
35877;SDS011;21982;49.804;24.072;2022-08-19T02:45:36;17.80;;;9.50;;
35877;SDS011;21982;49.804;24.072;2022-08-19T02:48:04;15.40;;;10.23;;
35877;SDS011;21982;49.804;24.072;2022-08-19T02:50:31;16.52;;;10.30;;
35877;SDS011;21982;49.804;24.072;2022-08-19T02:52:57;15.15;;;10.38;;
35877;SDS011;21982;49.804;24.072;2022-08-19T02:55:22;15.07;;;10.68;;
35877;SDS011;21982;49.804;24.072;2022-08-19T02:57:48;15.32;;;9.80;;
35877;SDS011;21982;49.804;24.072;2022-08-19T03:00:16;18.42;;;10.68;;
35877;SDS011;21982;49.804;24.072;2022-08-19T03:02:42;16.02;;;9.82;;
35877;SDS011;21982;49.804;24.072;2022-08-19T03:05:08;17.85;;;10.90;;
35877;SDS011;21982;49.804;24.072;2022-08-19T03:07:34;17.05;;;12.05;;
35877;SDS011;21982;49.804;24.072;2022-08-19T03:10:00;21.60;;;13.18;;
35877;SDS011;21982;49.804;24.072;2022-08-19T03:12:26;18.73;;;12.80;;
35877;SDS011;21982;49.804;24.072;2022-08-19T03:14:52;17.13;;;11.93;;
35877;SDS011;21982;49.804;24.072;2022-08-19T03:17:17;24.52;;;12.98;;
35877;SDS011;21982;49.804;24.072;2022-08-19T03:19:43;22.15;;;15.13;;
35877;SDS011;21982;49.804;24.072;2022-08-19T03:22:09;22.65;;;13.10;;
35877;SDS011;21982;49.804;24.072;2022-08-19T03:24:35;28.40;;;14.98;;
35877;SDS011;21982;49.804;24.072;2022-08-19T03:27:02;22.38;;;13.77;;
35877;SDS011;21982;49.804;24.072;2022-08-19T03:29:30;23.17;;;13.70;;
35877;SDS011;21982;49.804;24.072;2022-08-19T03:32:00;19.90;;;13.30;;
35877;SDS011;21982;49.804;24.072;2022-08-19T03:34:29;21.15;;;13.98;;
35877;SDS011;21982;49.804;24.072;2022-08-19T03:36:56;22.70;;;14.68;;
35877;SDS011;21982;49.804;24.072;2022-08-19T03:39:24;19.33;;;14.32;;
35877;SDS011;21982;49.804;24.072;2022-08-19T03:41:51;18.38;;;12.50;;
35877;SDS011;21982;49.804;24.072;2022-08-19T03:44:27;17.45;;;12.77;;
35877;SDS011;21982;49.804;24.072;2022-08-19T03:46:54;18.55;;;13.93;;
35877;SDS011;21982;49.804;24.072;2022-08-19T03:49:26;25.25;;;16.40;;
35877;SDS011;21982;49.804;24.072;2022-08-19T03:51:55;22.52;;;14.65;;
35877;SDS011;21982;49.804;24.072;2022-08-19T03:54:27;13.65;;;9.65;;
35877;SDS011;21982;49.804;24.072;2022-08-19T03:56:54;16.45;;;9.23;;
35877;SDS011;21982;49.804;24.072;2022-08-19T03:59:22;13.65;;;10.18;;
35877;SDS011;21982;49.804;24.072;2022-08-19T04:01:53;12.45;;;8.85;;
35877;SDS011;21982;49.804;24.072;2022-08-19T04:04:20;17.73;;;9.45;;
35877;SDS011;21982;49.804;24.072;2022-08-19T04:06:46;14.15;;;8.60;;
35877;SDS011;21982;49.804;24.072;2022-08-19T04:09:19;15.68;;;9.02;;
35877;SDS011;21982;49.804;24.072;2022-08-19T04:11:50;17.08;;;9.68;;
35877;SDS011;21982;49.804;24.072;2022-08-19T04:14:20;12.93;;;8.57;;
35877;SDS011;21982;49.804;24.072;2022-08-19T04:16:49;21.05;;;9.18;;
35877;SDS011;21982;49.804;24.072;2022-08-19T04:19:16;14.43;;;8.70;;
35877;SDS011;21982;49.804;24.072;2022-08-19T04:21:43;14.88;;;9.38;;
35877;SDS011;21982;49.804;24.072;2022-08-19T04:24:11;19.67;;;9.40;;
35877;SDS011;21982;49.804;24.072;2022-08-19T04:26:38;17.05;;;9.30;;
35877;SDS011;21982;49.804;24.072;2022-08-19T04:29:12;12.63;;;8.77;;
35877;SDS011;21982;49.804;24.072;2022-08-19T04:31:42;17.88;;;8.88;;
35877;SDS011;21982;49.804;24.072;2022-08-19T04:34:09;13.48;;;8.95;;
35877;SDS011;21982;49.804;24.072;2022-08-19T04:36:41;14.05;;;9.70;;
35877;SDS011;21982;49.804;24.072;2022-08-19T04:42:23;16.10;;;10.10;;
35877;SDS011;21982;49.804;24.072;2022-08-19T04:45:06;16.27;;;9.18;;
35877;SDS011;21982;49.804;24.072;2022-08-19T04:47:38;19.42;;;11.02;;
35877;SDS011;21982;49.804;24.072;2022-08-19T04:50:08;15.70;;;9.70;;
35877;SDS011;21982;49.804;24.072;2022-08-19T04:52:37;15.35;;;9.98;;
35877;SDS011;21982;49.804;24.072;2022-08-19T04:55:09;16.05;;;10.40;;
35877;SDS011;21982;49.804;24.072;2022-08-19T04:57:40;16.40;;;10.07;;
35877;SDS011;21982;49.804;24.072;2022-08-19T05:00:12;17.23;;;9.57;;
35877;SDS011;21982;49.804;24.072;2022-08-19T05:02:40;17.05;;;8.70;;
35877;SDS011;21982;49.804;24.072;2022-08-19T05:05:12;11.80;;;8.05;;
35877;SDS011;21982;49.804;24.072;2022-08-19T05:07:45;10.82;;;7.22;;
35877;SDS011;21982;49.804;24.072;2022-08-19T05:10:11;16.15;;;7.53;;
35877;SDS011;21982;49.804;24.072;2022-08-19T05:12:37;11.10;;;7.57;;
35877;SDS011;21982;49.804;24.072;2022-08-19T05:15:04;12.63;;;7.70;;
35877;SDS011;21982;49.804;24.072;2022-08-19T05:17:32;15.93;;;8.55;;
35877;SDS011;21982;49.804;24.072;2022-08-19T05:19:57;14.48;;;8.00;;
35877;SDS011;21982;49.804;24.072;2022-08-19T05:22:43;14.20;;;8.05;;
35877;SDS011;21982;49.804;24.072;2022-08-19T05:25:24;14.23;;;6.65;;
35877;SDS011;21982;49.804;24.072;2022-08-19T05:27:53;14.00;;;7.93;;
35877;SDS011;21982;49.804;24.072;2022-08-19T05:30:18;13.98;;;6.78;;
35877;SDS011;21982;49.804;24.072;2022-08-19T05:32:44;12.57;;;6.55;;
35877;SDS011;21982;49.804;24.072;2022-08-19T05:35:12;11.15;;;6.75;;
35877;SDS011;21982;49.804;24.072;2022-08-19T05:37:38;11.73;;;6.90;;
35877;SDS011;21982;49.804;24.072;2022-08-19T05:40:08;12.50;;;6.32;;
35877;SDS011;21982;49.804;24.072;2022-08-19T05:42:38;14.27;;;6.80;;
35877;SDS011;21982;49.804;24.072;2022-08-19T05:45:04;11.27;;;5.68;;
35877;SDS011;21982;49.804;24.072;2022-08-19T05:47:30;13.35;;;6.22;;
35877;SDS011;21982;49.804;24.072;2022-08-19T05:49:58;11.88;;;6.70;;
35877;SDS011;21982;49.804;24.072;2022-08-19T05:52:27;18.05;;;6.80;;
35877;SDS011;21982;49.804;24.072;2022-08-19T05:54:53;10.18;;;5.50;;
35877;SDS011;21982;49.804;24.072;2022-08-19T05:57:20;8.98;;;5.30;;
35877;SDS011;21982;49.804;24.072;2022-08-19T05:59:53;8.70;;;5.53;;
35877;SDS011;21982;49.804;24.072;2022-08-19T06:02:20;10.00;;;5.63;;
35877;SDS011;21982;49.804;24.072;2022-08-19T06:04:45;8.40;;;5.35;;
35877;SDS011;21982;49.804;24.072;2022-08-19T06:07:11;11.70;;;5.65;;
35877;SDS011;21982;49.804;24.072;2022-08-19T06:09:36;11.98;;;6.00;;
35877;SDS011;21982;49.804;24.072;2022-08-19T06:12:02;10.20;;;5.70;;
35877;SDS011;21982;49.804;24.072;2022-08-19T06:14:30;13.77;;;6.45;;
35877;SDS011;21982;49.804;24.072;2022-08-19T06:16:59;16.77;;;5.80;;
35877;SDS011;21982;49.804;24.072;2022-08-19T06:19:27;8.85;;;5.18;;
35877;SDS011;21982;49.804;24.072;2022-08-19T06:21:58;8.90;;;5.32;;
35877;SDS011;21982;49.804;24.072;2022-08-19T06:24:33;11.57;;;4.50;;
35877;SDS011;21982;49.804;24.072;2022-08-19T06:27:00;11.38;;;5.28;;
35877;SDS011;21982;49.804;24.072;2022-08-19T06:29:30;12.07;;;5.47;;
35877;SDS011;21982;49.804;24.072;2022-08-19T06:31:57;16.35;;;5.65;;
35877;SDS011;21982;49.804;24.072;2022-08-19T06:34:24;10.85;;;5.22;;
35877;SDS011;21982;49.804;24.072;2022-08-19T06:36:53;13.95;;;6.70;;
35877;SDS011;21982;49.804;24.072;2022-08-19T06:42:18;10.68;;;5.45;;
35877;SDS011;21982;49.804;24.072;2022-08-19T06:44:44;9.23;;;5.75;;
35877;SDS011;21982;49.804;24.072;2022-08-19T06:47:16;8.32;;;4.70;;
35877;SDS011;21982;49.804;24.072;2022-08-19T06:49:46;10.73;;;5.60;;
35877;SDS011;21982;49.804;24.072;2022-08-19T06:52:15;8.63;;;4.75;;
35877;SDS011;21982;49.804;24.072;2022-08-19T06:54:46;8.35;;;4.93;;
35877;SDS011;21982;49.804;24.072;2022-08-19T06:57:12;9.63;;;5.03;;
35877;SDS011;21982;49.804;24.072;2022-08-19T06:59:42;8.32;;;4.50;;
35877;SDS011;21982;49.804;24.072;2022-08-19T07:02:12;13.05;;;5.72;;
35877;SDS011;21982;49.804;24.072;2022-08-19T07:04:51;10.60;;;4.50;;
35877;SDS011;21982;49.804;24.072;2022-08-19T07:07:16;11.70;;;5.80;;
35877;SDS011;21982;49.804;24.072;2022-08-19T07:09:42;8.90;;;4.80;;
35877;SDS011;21982;49.804;24.072;2022-08-19T07:12:10;8.98;;;4.88;;
35877;SDS011;21982;49.804;24.072;2022-08-19T07:14:44;12.45;;;5.55;;
35877;SDS011;21982;49.804;24.072;2022-08-19T07:17:11;10.60;;;4.50;;
35877;SDS011;21982;49.804;24.072;2022-08-19T07:19:37;8.48;;;4.45;;
35877;SDS011;21982;49.804;24.072;2022-08-19T07:22:04;10.60;;;3.80;;
35877;SDS011;21982;49.804;24.072;2022-08-19T07:24:32;8.13;;;4.10;;
35877;SDS011;21982;49.804;24.072;2022-08-19T07:27:00;6.93;;;3.72;;
35877;SDS011;21982;49.804;24.072;2022-08-19T07:29:28;7.40;;;3.92;;
35877;SDS011;21982;49.804;24.072;2022-08-19T07:31:56;9.57;;;3.75;;
35877;SDS011;21982;49.804;24.072;2022-08-19T07:34:27;7.57;;;3.88;;
35877;SDS011;21982;49.804;24.072;2022-08-19T07:37:03;8.68;;;4.20;;
35877;SDS011;21982;49.804;24.072;2022-08-19T07:39:31;9.80;;;5.43;;
35877;SDS011;21982;49.804;24.072;2022-08-19T07:41:59;11.50;;;4.60;;
35877;SDS011;21982;49.804;24.072;2022-08-19T07:44:26;11.15;;;4.43;;
35877;SDS011;21982;49.804;24.072;2022-08-19T07:46:54;7.55;;;4.35;;
35877;SDS011;21982;49.804;24.072;2022-08-19T07:49:21;9.25;;;4.35;;
35877;SDS011;21982;49.804;24.072;2022-08-19T07:51:49;8.02;;;4.35;;
35877;SDS011;21982;49.804;24.072;2022-08-19T07:54:16;8.90;;;3.65;;
35877;SDS011;21982;49.804;24.072;2022-08-19T07:56:45;7.68;;;4.05;;
35877;SDS011;21982;49.804;24.072;2022-08-19T07:59:11;8.73;;;4.20;;
35877;SDS011;21982;49.804;24.072;2022-08-19T08:01:37;10.45;;;4.15;;
35877;SDS011;21982;49.804;24.072;2022-08-19T08:04:05;11.23;;;5.40;;
35877;SDS011;21982;49.804;24.072;2022-08-19T08:06:50;13.13;;;4.28;;
35877;SDS011;21982;49.804;24.072;2022-08-19T08:09:35;9.93;;;4.25;;
35877;SDS011;21982;49.804;24.072;2022-08-19T08:12:45;14.18;;;4.88;;
35877;SDS011;21982;49.804;24.072;2022-08-19T08:14:55;6.75;;;3.60;;
35877;SDS011;21982;49.804;24.072;2022-08-19T08:17:23;7.10;;;4.55;;
35877;SDS011;21982;49.804;24.072;2022-08-19T08:19:51;11.10;;;5.07;;
35877;SDS011;21982;49.804;24.072;2022-08-19T08:22:18;9.05;;;4.85;;
35877;SDS011;21982;49.804;24.072;2022-08-19T08:25:08;8.07;;;5.20;;
35877;SDS011;21982;49.804;24.072;2022-08-19T08:27:41;10.18;;;5.90;;
35877;SDS011;21982;49.804;24.072;2022-08-19T08:30:09;8.35;;;4.95;;
35877;SDS011;21982;49.804;24.072;2022-08-19T08:32:41;8.60;;;5.15;;
35877;SDS011;21982;49.804;24.072;2022-08-19T08:35:08;11.10;;;4.70;;
35877;SDS011;21982;49.804;24.072;2022-08-19T08:37:37;8.43;;;4.32;;
35877;SDS011;21982;49.804;24.072;2022-08-19T08:43:07;11.32;;;4.78;;
35877;SDS011;21982;49.804;24.072;2022-08-19T08:46:00;8.45;;;4.38;;
35877;SDS011;21982;49.804;24.072;2022-08-19T08:48:44;9.95;;;4.97;;
35877;SDS011;21982;49.804;24.072;2022-08-19T08:51:59;9.68;;;4.70;;
35877;SDS011;21982;49.804;24.072;2022-08-19T08:54:42;9.82;;;4.68;;
35877;SDS011;21982;49.804;24.072;2022-08-19T08:57:12;8.85;;;4.38;;
35877;SDS011;21982;49.804;24.072;2022-08-19T08:59:51;8.20;;;3.75;;
35877;SDS011;21982;49.804;24.072;2022-08-19T09:02:21;11.23;;;4.05;;
35877;SDS011;21982;49.804;24.072;2022-08-19T09:04:53;9.88;;;4.18;;
35877;SDS011;21982;49.804;24.072;2022-08-19T09:15:28;9.27;;;4.25;;
35877;SDS011;21982;49.804;24.072;2022-08-19T09:18:01;7.13;;;3.45;;
35877;SDS011;21982;49.804;24.072;2022-08-19T09:20:29;10.15;;;4.13;;
35877;SDS011;21982;49.804;24.072;2022-08-19T09:22:56;7.43;;;4.03;;
35877;SDS011;21982;49.804;24.072;2022-08-19T09:25:22;9.15;;;3.53;;
35877;SDS011;21982;49.804;24.072;2022-08-19T09:27:48;16.02;;;4.03;;
35877;SDS011;21982;49.804;24.072;2022-08-19T09:30:16;9.73;;;3.72;;
35877;SDS011;21982;49.804;24.072;2022-08-19T09:32:43;7.78;;;3.90;;
35877;SDS011;21982;49.804;24.072;2022-08-19T09:35:13;5.45;;;3.72;;
35877;SDS011;21982;49.804;24.072;2022-08-19T09:37:44;7.78;;;4.10;;
35877;SDS011;21982;49.804;24.072;2022-08-19T09:40:10;6.30;;;2.80;;
35877;SDS011;21982;49.804;24.072;2022-08-19T09:42:36;7.05;;;3.55;;
35877;SDS011;21982;49.804;24.072;2022-08-19T09:45:08;7.45;;;3.65;;
35877;SDS011;21982;49.804;24.072;2022-08-19T09:47:34;11.00;;;3.53;;
35877;SDS011;21982;49.804;24.072;2022-08-19T09:50:03;10.77;;;3.92;;
35877;SDS011;21982;49.804;24.072;2022-08-19T09:52:30;8.40;;;3.95;;
35877;SDS011;21982;49.804;24.072;2022-08-19T09:54:56;5.88;;;3.53;;
35877;SDS011;21982;49.804;24.072;2022-08-19T09:57:21;4.93;;;2.90;;
35877;SDS011;21982;49.804;24.072;2022-08-19T09:59:46;10.05;;;3.63;;
35877;SDS011;21982;49.804;24.072;2022-08-19T10:02:12;5.15;;;2.97;;
35877;SDS011;21982;49.804;24.072;2022-08-19T10:04:40;8.48;;;3.50;;
35877;SDS011;21982;49.804;24.072;2022-08-19T10:07:24;6.50;;;4.07;;
35877;SDS011;21982;49.804;24.072;2022-08-19T10:09:50;8.80;;;4.38;;
35877;SDS011;21982;49.804;24.072;2022-08-19T10:12:15;5.70;;;3.22;;
35877;SDS011;21982;49.804;24.072;2022-08-19T10:14:40;7.03;;;3.67;;
35877;SDS011;21982;49.804;24.072;2022-08-19T10:17:07;6.47;;;3.33;;
35877;SDS011;21982;49.804;24.072;2022-08-19T10:19:32;6.72;;;3.15;;
35877;SDS011;21982;49.804;24.072;2022-08-19T10:22:04;7.60;;;3.75;;
35877;SDS011;21982;49.804;24.072;2022-08-19T10:24:31;3.83;;;2.38;;
35877;SDS011;21982;49.804;24.072;2022-08-19T10:26:58;7.75;;;2.97;;
35877;SDS011;21982;49.804;24.072;2022-08-19T10:29:25;26.83;;;5.28;;
35877;SDS011;21982;49.804;24.072;2022-08-19T10:31:53;5.38;;;2.83;;
35877;SDS011;21982;49.804;24.072;2022-08-19T10:34:18;8.63;;;3.80;;
35877;SDS011;21982;49.804;24.072;2022-08-19T10:36:44;7.57;;;3.50;;
35877;SDS011;21982;49.804;24.072;2022-08-19T10:39:10;7.07;;;3.22;;
35877;SDS011;21982;49.804;24.072;2022-08-19T10:41:38;7.13;;;3.33;;
35877;SDS011;21982;49.804;24.072;2022-08-19T10:44:06;9.30;;;3.40;;
35877;SDS011;21982;49.804;24.072;2022-08-19T10:46:36;6.68;;;3.13;;
35877;SDS011;21982;49.804;24.072;2022-08-19T10:49:04;7.75;;;3.45;;
35877;SDS011;21982;49.804;24.072;2022-08-19T10:51:31;8.93;;;3.22;;
35877;SDS011;21982;49.804;24.072;2022-08-19T10:54:16;6.90;;;4.13;;
35877;SDS011;21982;49.804;24.072;2022-08-19T10:56:48;7.15;;;3.50;;
35877;SDS011;21982;49.804;24.072;2022-08-19T10:59:24;12.45;;;4.32;;
35877;SDS011;21982;49.804;24.072;2022-08-19T11:01:52;9.13;;;3.63;;
35877;SDS011;21982;49.804;24.072;2022-08-19T11:04:18;9.18;;;3.72;;
35877;SDS011;21982;49.804;24.072;2022-08-19T11:06:45;7.40;;;4.25;;
35877;SDS011;21982;49.804;24.072;2022-08-19T11:09:15;8.15;;;3.58;;
35877;SDS011;21982;49.804;24.072;2022-08-19T11:11:45;10.25;;;3.42;;
35877;SDS011;21982;49.804;24.072;2022-08-19T11:14:13;10.93;;;3.10;;
35877;SDS011;21982;49.804;24.072;2022-08-19T11:16:41;7.38;;;3.78;;
35877;SDS011;21982;49.804;24.072;2022-08-19T11:19:07;9.77;;;3.95;;
35877;SDS011;21982;49.804;24.072;2022-08-19T11:21:36;14.63;;;3.88;;
35877;SDS011;21982;49.804;24.072;2022-08-19T11:24:09;5.55;;;3.30;;
35877;SDS011;21982;49.804;24.072;2022-08-19T11:26:43;7.15;;;3.78;;
35877;SDS011;21982;49.804;24.072;2022-08-19T11:29:18;6.20;;;3.38;;
35877;SDS011;21982;49.804;24.072;2022-08-19T11:31:46;11.35;;;3.67;;
35877;SDS011;21982;49.804;24.072;2022-08-19T11:34:15;5.63;;;3.30;;
35877;SDS011;21982;49.804;24.072;2022-08-19T11:36:46;6.40;;;3.40;;
35877;SDS011;21982;49.804;24.072;2022-08-19T11:39:14;8.18;;;3.70;;
35877;SDS011;21982;49.804;24.072;2022-08-19T11:41:42;8.10;;;3.50;;
35877;SDS011;21982;49.804;24.072;2022-08-19T11:44:08;5.93;;;3.22;;
35877;SDS011;21982;49.804;24.072;2022-08-19T11:46:34;6.25;;;3.38;;
35877;SDS011;21982;49.804;24.072;2022-08-19T11:49:01;5.45;;;3.47;;
35877;SDS011;21982;49.804;24.072;2022-08-19T11:51:34;6.90;;;3.05;;
35877;SDS011;21982;49.804;24.072;2022-08-19T11:54:01;5.82;;;3.30;;
35877;SDS011;21982;49.804;24.072;2022-08-19T11:56:30;15.05;;;3.75;;
35877;SDS011;21982;49.804;24.072;2022-08-19T11:58:56;7.03;;;3.42;;
35877;SDS011;21982;49.804;24.072;2022-08-19T12:01:23;6.65;;;4.10;;
35877;SDS011;21982;49.804;24.072;2022-08-19T12:03:51;6.60;;;2.63;;
35877;SDS011;21982;49.804;24.072;2022-08-19T12:06:25;8.00;;;3.42;;
35877;SDS011;21982;49.804;24.072;2022-08-19T12:08:57;8.73;;;3.75;;
35877;SDS011;21982;49.804;24.072;2022-08-19T12:11:25;7.38;;;3.20;;
35877;SDS011;21982;49.804;24.072;2022-08-19T12:13:54;8.73;;;3.22;;
35877;SDS011;21982;49.804;24.072;2022-08-19T12:16:25;8.13;;;3.47;;
35877;SDS011;21982;49.804;24.072;2022-08-19T12:18:53;7.10;;;3.30;;
35877;SDS011;21982;49.804;24.072;2022-08-19T12:21:23;4.75;;;2.70;;
35877;SDS011;21982;49.804;24.072;2022-08-19T12:26:20;5.88;;;2.63;;
35877;SDS011;21982;49.804;24.072;2022-08-19T12:28:45;15.98;;;3.58;;
35877;SDS011;21982;49.804;24.072;2022-08-19T12:31:12;4.93;;;3.05;;
35877;SDS011;21982;49.804;24.072;2022-08-19T12:33:41;7.63;;;2.70;;
35877;SDS011;21982;49.804;24.072;2022-08-19T12:36:09;6.20;;;2.47;;
35877;SDS011;21982;49.804;24.072;2022-08-19T12:38:35;4.97;;;2.70;;
35877;SDS011;21982;49.804;24.072;2022-08-19T12:41:02;5.53;;;2.92;;
35877;SDS011;21982;49.804;24.072;2022-08-19T12:43:31;5.25;;;2.90;;
35877;SDS011;21982;49.804;24.072;2022-08-19T12:45:56;5.05;;;2.70;;
35877;SDS011;21982;49.804;24.072;2022-08-19T12:48:22;8.10;;;4.95;;
35877;SDS011;21982;49.804;24.072;2022-08-19T12:50:48;7.05;;;3.08;;
35877;SDS011;21982;49.804;24.072;2022-08-19T12:53:13;7.18;;;3.22;;
35877;SDS011;21982;49.804;24.072;2022-08-19T12:55:39;7.57;;;3.95;;
35877;SDS011;21982;49.804;24.072;2022-08-19T12:58:05;6.53;;;2.97;;
35877;SDS011;21982;49.804;24.072;2022-08-19T13:00:30;10.23;;;3.90;;
35877;SDS011;21982;49.804;24.072;2022-08-19T13:02:58;7.20;;;3.25;;
35877;SDS011;21982;49.804;24.072;2022-08-19T13:05:26;6.10;;;3.08;;
35877;SDS011;21982;49.804;24.072;2022-08-19T13:07:54;11.10;;;3.35;;
35877;SDS011;21982;49.804;24.072;2022-08-19T13:10:22;6.32;;;3.90;;
35877;SDS011;21982;49.804;24.072;2022-08-19T13:12:50;5.43;;;2.63;;
35877;SDS011;21982;49.804;24.072;2022-08-19T13:15:17;11.90;;;3.53;;
35877;SDS011;21982;49.804;24.072;2022-08-19T13:17:47;5.97;;;3.03;;
35877;SDS011;21982;49.804;24.072;2022-08-19T13:20:14;6.35;;;3.33;;
35877;SDS011;21982;49.804;24.072;2022-08-19T13:22:42;9.18;;;3.42;;
35877;SDS011;21982;49.804;24.072;2022-08-19T13:25:09;9.52;;;4.30;;
35877;SDS011;21982;49.804;24.072;2022-08-19T13:27:35;6.53;;;3.92;;
35877;SDS011;21982;49.804;24.072;2022-08-19T13:30:02;7.18;;;3.78;;
35877;SDS011;21982;49.804;24.072;2022-08-19T13:32:48;7.05;;;4.20;;
35877;SDS011;21982;49.804;24.072;2022-08-19T13:37:57;5.80;;;3.40;;
35877;SDS011;21982;49.804;24.072;2022-08-19T13:40:23;7.10;;;3.90;;
35877;SDS011;21982;49.804;24.072;2022-08-19T13:42:53;8.57;;;4.53;;
35877;SDS011;21982;49.804;24.072;2022-08-19T13:45:27;8.07;;;4.18;;
35877;SDS011;21982;49.804;24.072;2022-08-19T13:47:55;5.63;;;3.17;;
35877;SDS011;21982;49.804;24.072;2022-08-19T13:50:26;7.35;;;4.03;;
35877;SDS011;21982;49.804;24.072;2022-08-19T13:52:53;16.02;;;4.45;;
35877;SDS011;21982;49.804;24.072;2022-08-19T13:55:20;8.73;;;4.32;;
35877;SDS011;21982;49.804;24.072;2022-08-19T13:57:50;7.45;;;4.32;;
35877;SDS011;21982;49.804;24.072;2022-08-19T14:00:19;6.55;;;3.67;;
35877;SDS011;21982;49.804;24.072;2022-08-19T14:02:46;9.20;;;4.13;;
35877;SDS011;21982;49.804;24.072;2022-08-19T14:05:14;6.97;;;4.15;;
35877;SDS011;21982;49.804;24.072;2022-08-19T14:07:40;7.18;;;3.40;;
35877;SDS011;21982;49.804;24.072;2022-08-19T14:10:07;7.88;;;3.67;;
35877;SDS011;21982;49.804;24.072;2022-08-19T14:12:35;9.45;;;5.30;;
35877;SDS011;21982;49.804;24.072;2022-08-19T14:15:02;7.22;;;3.58;;
35877;SDS011;21982;49.804;24.072;2022-08-19T14:17:29;10.80;;;4.10;;
35877;SDS011;21982;49.804;24.072;2022-08-19T14:19:57;9.73;;;4.32;;
35877;SDS011;21982;49.804;24.072;2022-08-19T14:22:25;6.35;;;3.35;;
35877;SDS011;21982;49.804;24.072;2022-08-19T14:24:51;6.70;;;3.47;;
35877;SDS011;21982;49.804;24.072;2022-08-19T14:27:16;8.07;;;3.80;;
35877;SDS011;21982;49.804;24.072;2022-08-19T14:29:41;7.85;;;4.47;;
35877;SDS011;21982;49.804;24.072;2022-08-19T14:32:07;8.85;;;3.97;;
35877;SDS011;21982;49.804;24.072;2022-08-19T14:34:33;7.40;;;3.58;;
35877;SDS011;21982;49.804;24.072;2022-08-19T14:36:58;7.43;;;3.85;;
35877;SDS011;21982;49.804;24.072;2022-08-19T14:39:24;7.95;;;3.92;;
35877;SDS011;21982;49.804;24.072;2022-08-19T14:41:50;10.25;;;3.35;;
35877;SDS011;21982;49.804;24.072;2022-08-19T14:44:15;7.85;;;3.85;;
35877;SDS011;21982;49.804;24.072;2022-08-19T14:46:41;7.40;;;3.70;;
35877;SDS011;21982;49.804;24.072;2022-08-19T14:49:06;9.50;;;3.47;;
35877;SDS011;21982;49.804;24.072;2022-08-19T14:51:32;8.18;;;4.20;;
35877;SDS011;21982;49.804;24.072;2022-08-19T14:53:58;10.60;;;3.40;;
35877;SDS011;21982;49.804;24.072;2022-08-19T14:56:24;8.05;;;3.72;;
35877;SDS011;21982;49.804;24.072;2022-08-19T14:58:52;9.23;;;3.22;;
35877;SDS011;21982;49.804;24.072;2022-08-19T15:01:18;5.93;;;3.67;;